ADDS METAR Data INFO
IDs: Format: Raw Decoded Include TAF

Data at: 1207 UTC 21 Jun 2018

KPXE 211155Z AUTO 00000KT 10SM CLR 24/22 A2991 RMK AO2 T02380216 10248 20212
KPXE 211135Z AUTO 21003KT 10SM CLR 22/21 A2991 RMK AO2 T02250212
KPXE 211115Z AUTO 00000KT 10SM CLR 23/21 A2991 RMK AO2 T02270211
KPXE 211055Z AUTO 00000KT 10SM CLR 22/21 A2991 RMK AO2 T02200207
KPXE 211035Z AUTO 00000KT 10SM CLR 21/20 A2991 RMK AO2 T02130205
KPXE 211015Z AUTO 00000KT 10SM CLR 22/21 A2990 RMK AO2 T02210206
KPXE 210955Z AUTO 00000KT 10SM CLR 22/21 A2990 RMK AO2 T02250206
KPXE 210935Z AUTO 00000KT 10SM CLR 22/20 A2989 RMK AO2 T02180205
KPXE 210915Z AUTO 00000KT 10SM CLR 22/21 A2989 RMK AO2 T02230207
KPXE 210855Z AUTO 00000KT 10SM CLR 22/21 A2989 RMK AO2 T02160207
KPXE 210835Z AUTO 00000KT 10SM CLR 22/21 A2989 RMK AO2 T02190208
KPXE 210815Z AUTO 00000KT 10SM CLR 22/21 A2989 RMK AO2 T02190208
KPXE 210755Z AUTO 20003KT 10SM CLR 22/21 A2989 RMK AO2 T02190208
KPXE 210735Z AUTO 00000KT 10SM CLR 22/21 A2988 RMK AO2 T02220208
KPXE 210715Z AUTO 00000KT 10SM CLR 23/21 A2989 RMK AO2 T02260208
KPXE 210655Z AUTO 00000KT 10SM CLR 23/21 A2990 RMK AO2 T02270211
KPXE 210635Z AUTO 00000KT 10SM CLR 24/21 A2990 RMK AO2 T02390209
KPXE 210615Z AUTO 00000KT 10SM CLR 25/21 A2990 RMK AO2 T02460208
KPXE 210555Z AUTO 00000KT 10SM CLR 25/21 A2991 RMK AO2 T02490206 10332 20248
KPXE 210535Z AUTO 00000KT 10SM CLR 25/21 A2991 RMK AO2 T02530205
KPXE 210515Z AUTO 00000KT 10SM CLR 26/21 A2991 RMK AO2 T02550207
KPXE 210455Z AUTO 00000KT 10SM CLR 25/21 A2991 RMK AO2 T02510211
KPXE 210435Z AUTO 00000KT 10SM CLR 25/22 A2992 RMK AO2 T02500219
KPXE 210415Z AUTO 00000KT 10SM CLR 26/21 A2992 RMK AO2 T02590213
KPXE 210355Z AUTO 30003KT 10SM CLR 26/21 A2992 RMK AO2 T02640209
KPXE 210335Z AUTO 00000KT 10SM CLR 26/21 A2992 RMK AO2 T02600214
KPXE 210315Z AUTO 31003KT 10SM CLR 26/22 A2992 RMK AO2 T02570219
KPXE 210255Z AUTO 00000KT 10SM CLR 26/22 A2992 RMK AO2 T02600220
KPXE 210235Z AUTO 00000KT 10SM CLR 26/21 A2992 RMK AO2 T02650215
KPXE 210215Z AUTO 00000KT 10SM CLR 27/22 A2992 RMK AO2 T02710216
KPXE 210155Z AUTO 24008KT 250V310 10SM CLR 27/22 A2991 RMK AO2 T02680216
KPXE 210135Z AUTO 00000KT 10SM CLR 28/21 A2990 RMK AO2 T02800212
KPXE 210115Z AUTO 00000KT 10SM CLR 29/20 A2990 RMK AO2 T02910204
KPXE 210055Z AUTO 32003KT 10SM CLR 30/20 A2989 RMK AO2 T02990201
KPXE 210035Z AUTO 33003KT 10SM CLR 31/20 A2989 RMK AO2 T03080197
KPXE 210015Z AUTO 33004KT 10SM CLR 32/19 A2989 RMK AO2 T03220188
KPXE 202355Z AUTO 35004KT 10SM CLR 33/18 A2988 RMK AO2 T03330180 10365 20332 403650228
KPXE 202335Z AUTO 34005KT 10SM CLR 34/17 A2988 RMK AO2 T03380174
KPXE 202315Z AUTO 33008KT 10SM CLR 34/17 A2987 RMK AO2 T03430171
KPXE 202255Z AUTO 32006KT 10SM CLR 35/18 A2987 RMK AO2 T03460178
KPXE 202235Z AUTO 33009KT 10SM CLR 35/18 A2987 RMK AO2 T03510179
KPXE 202215Z AUTO 32010KT 10SM CLR 35/18 A2987 RMK AO2 T03530182
KPXE 202155Z AUTO 33008G14KT 10SM CLR 36/18 A2987 RMK AO2 LTG DSNT SE T03550182
KPXE 202135Z AUTO 34010KT 10SM CLR 36/18 A2986 RMK AO2 T03560183
KPXE 202115Z AUTO 31009KT 10SM SCT070 36/19 A2987 RMK AO2 T03550186
KPXE 202055Z AUTO 35009KT 10SM SCT070 SCT075 36/19 A2987 RMK AO2 T03560193
KPXE 202035Z AUTO 35008KT 10SM SCT070 35/20 A2988 RMK AO2 T03500204
KPXE 202015Z AUTO 35009KT 10SM CLR 35/20 A2989 RMK AO2 T03540201
KPXE 201955Z AUTO 36010G15KT 10SM SCT060 SCT075 SCT085 36/20 A2989 RMK AO2 T03570204
KPXE 201935Z AUTO 35010KT 10SM BKN060 BKN075 BKN085 35/20 A2990 RMK AO2 T03550204
KPXE 201915Z AUTO 31007KT 290V350 10SM SCT060 BKN075 35/20 A2990 RMK AO2 T03490205
KPXE 201855Z AUTO 35009KT 10SM SCT060 SCT075 35/21 A2991 RMK AO2 T03500209
KPXE 201835Z AUTO 30010KT 280V340 10SM CLR 35/21 A2991 RMK AO2 T03540212
KPXE 201815Z AUTO 32008KT 280V340 10SM CLR 35/21 A2992 RMK AO2 T03490205
KPXE 201755Z AUTO 32009KT 10SM SCT055 35/21 A2992 RMK AO2 T03480207 10356 20256
KPXE 201735Z AUTO 32007KT 10SM SCT055 35/21 A2993 RMK AO2 T03460207
KPXE 201715Z AUTO 34006KT 10SM CLR 34/21 A2993 RMK AO2 T03390205
KPXE 201655Z AUTO 31007KT 270V340 10SM SCT050 34/21 A2994 RMK AO2 T03430208
KPXE 201635Z AUTO 34007KT 10SM CLR 34/21 A2994 RMK AO2 T03390206
KPXE 201615Z AUTO 34008KT 10SM SCT043 34/22 A2994 RMK AO2 T03380218
KPXE 201555Z AUTO 28005KT 10SM CLR 33/22 A2995 RMK AO2 T03260224
KPXE 201535Z AUTO 28003KT 10SM CLR 32/22 A2995 RMK AO2 T03200223
KPXE 201515Z AUTO 31004KT 10SM CLR 31/22 A2995 RMK AO2 T03150221
KPXE 201455Z AUTO 31006KT 10SM CLR 31/23 A2995 RMK AO2 T03120225
KPXE 201435Z AUTO 30006KT 10SM CLR 31/22 A2995 RMK AO2 T03080224
KPXE 201415Z AUTO 34005KT 10SM CLR 30/22 A2995 RMK AO2 T03040223
KPXE 201355Z AUTO 35006KT 10SM CLR 30/22 A2996 RMK AO2 T03000223
KPXE 201335Z AUTO 35006KT 10SM CLR 29/22 A2996 RMK AO2 T02920221
KPXE 201315Z AUTO 34007KT 10SM CLR 29/22 A2996 RMK AO2 T02860220
KPXE 201255Z AUTO 34007KT 10SM CLR 28/22 A2996 RMK AO2 T02780224
KPXE 201235Z AUTO 33008KT 10SM CLR 27/22 A2995 RMK AO2 T02710221
KPXE 201215Z AUTO 32005KT 10SM CLR 26/22 A2995 RMK AO2 T02630223
KPXE 201155Z AUTO 31003KT 10SM CLR 25/22 A2995 RMK AO2 T02540224 10264 20228
KPXE 201135Z AUTO 00000KT 10SM CLR 25/22 A2994 RMK AO2 T02470224
KPXE 201115Z AUTO 00000KT 10SM CLR 24/22 A2994 RMK AO2 T02410222
KPXE 201055Z AUTO 29003KT 10SM CLR 24/22 A2994 RMK AO2 T02350222
KPXE 201035Z AUTO 00000KT 10SM CLR 23/22 A2994 RMK AO2 T02290221
KPXE 201015Z AUTO 00000KT 10SM CLR 23/22 A2994 RMK AO2 T02350221
KPXE 200955Z AUTO 00000KT 10SM CLR 24/22 A2994 RMK AO2 T02370223
KPXE 200935Z AUTO 00000KT 10SM CLR 24/22 A2994 RMK AO2 T02430222
KPXE 200915Z AUTO 00000KT 10SM CLR 24/22 A2994 RMK AO2 T02440224
KPXE 200855Z AUTO 00000KT 10SM CLR 25/22 A2993 RMK AO2 T02480224
KPXE 200835Z AUTO 00000KT 10SM CLR 25/22 A2994 RMK AO2 T02500225
KPXE 200815Z AUTO 00000KT 10SM CLR 25/23 A2994 RMK AO2 T02520225
KPXE 200755Z AUTO 30003KT 10SM CLR 25/23 A2994 RMK AO2 T02530226
KPXE 200735Z AUTO 30005KT 10SM CLR 25/23 A2994 RMK AO2 T02540226
KPXE 200715Z AUTO 31003KT 10SM CLR 26/23 A2994 RMK AO2 T02560227
KPXE 200655Z AUTO 31003KT 10SM CLR 26/23 A2994 RMK AO2 T02590228
KPXE 200635Z AUTO 30003KT 10SM CLR 26/23 A2994 RMK AO2 T02610227
KPXE 200615Z AUTO 32004KT 10SM CLR 26/23 A2994 RMK AO2 T02640227
KPXE 200555Z AUTO 34004KT 10SM CLR 26/23 A2994 RMK AO2 T02620228 10310 20261
KPXE 200535Z AUTO 32006KT 10SM CLR 27/23 A2995 RMK AO2 T02680228
KPXE 200515Z AUTO 30006KT 10SM CLR 27/23 A2995 RMK AO2 T02690228
KPXE 200455Z AUTO 30005KT 10SM CLR 27/23 A2995 RMK AO2 T02680230
KPXE 200435Z AUTO 30004KT 10SM SCT060 27/23 A2995 RMK AO2 T02710231
KPXE 200415Z AUTO 29004KT 10SM BKN060 27/23 A2996 RMK AO2 T02720233
KPXE 200355Z AUTO 00000KT 10SM BKN060 27/24 A2996 RMK AO2 T02690238
KPXE 200335Z AUTO 28003KT 10SM CLR 27/24 A2996 RMK AO2 T02700237
KPXE 200315Z AUTO 00000KT 10SM CLR 26/25 A2995 RMK AO2 T02620248
KPXE 200255Z AUTO 00000KT 10SM CLR 27/25 A2995 RMK AO2 T02710250
KPXE 200235Z AUTO 00000KT 10SM CLR 27/25 A2995 RMK AO2 T02670253
KPXE 200215Z AUTO 00000KT 10SM CLR 28/25 A2994 RMK AO2 T02760247
KPXE 200155Z AUTO 00000KT 10SM CLR 28/25 A2994 RMK AO2 T02790251
KPXE 200135Z AUTO 00000KT 10SM CLR 28/25 A2994 RMK AO2 T02790250
KPXE 200115Z AUTO 00000KT 10SM CLR 29/25 A2994 RMK AO2 T02870251
KPXE 200055Z AUTO 19003KT 10SM SCT060 30/25 A2993 RMK AO2 T02990251
KPXE 200035Z AUTO 00000KT 10SM SCT060 30/24 A2993 RMK AO2 T03030245
KPXE 200015Z AUTO 00000KT 10SM CLR 31/24 A2993 RMK AO2 T03070245